sensor_id;sensor_type;location;lat;lon;timestamp;temperature;humidity
1678;DHT22;6034;46.864;15.216;2022-08-01T05:01:34;20.60;97.30
1678;DHT22;6034;46.864;15.216;2022-08-01T05:04:01;20.60;97.50
1678;DHT22;6034;46.864;15.216;2022-08-01T05:06:28;20.60;98.40
1678;DHT22;6034;46.864;15.216;2022-08-01T05:08:55;20.70;99.30
1678;DHT22;6034;46.864;15.216;2022-08-01T05:11:22;20.80;99.20
1678;DHT22;6034;46.864;15.216;2022-08-01T05:13:49;20.70;99.50
1678;DHT22;6034;46.864;15.216;2022-08-01T05:16:16;20.80;99.90
1678;DHT22;6034;46.864;15.216;2022-08-01T05:18:45;21.00;99.90
1678;DHT22;6034;46.864;15.216;2022-08-01T05:21:11;21.00;99.90
1678;DHT22;6034;46.864;15.216;2022-08-01T05:23:38;21.30;99.90
1678;DHT22;6034;46.864;15.216;2022-08-01T05:26:05;21.30;99.90
1678;DHT22;6034;46.864;15.216;2022-08-01T05:28:32;21.20;98.60
1678;DHT22;6034;46.864;15.216;2022-08-01T05:30:59;21.10;99.90
1678;DHT22;6034;46.864;15.216;2022-08-01T05:33:26;21.10;99.90
1678;DHT22;6034;46.864;15.216;2022-08-01T05:35:54;21.20;99.80
1678;DHT22;6034;46.864;15.216;2022-08-01T05:38:21;20.90;99.90
1678;DHT22;6034;46.864;15.216;2022-08-01T05:40:48;21.10;99.90
1678;DHT22;6034;46.864;15.216;2022-08-01T05:43:15;21.10;99.90
1678;DHT22;6034;46.864;15.216;2022-08-01T05:45:42;21.10;99.90
1678;DHT22;6034;46.864;15.216;2022-08-01T11:08:34;26.70;95.30
1678;DHT22;6034;46.864;15.216;2022-08-01T11:11:02;26.70;96.10
1678;DHT22;6034;46.864;15.216;2022-08-01T11:16:26;26.70;96.70
1678;DHT22;6034;46.864;15.216;2022-08-01T11:18:53;26.90;96.40
1678;DHT22;6034;46.864;15.216;2022-08-01T11:21:20;26.80;96.80
1678;DHT22;6034;46.864;15.216;2022-08-01T11:23:50;26.70;98.40
1678;DHT22;6034;46.864;15.216;2022-08-01T11:26:19;26.60;99.10
1678;DHT22;6034;46.864;15.216;2022-08-01T11:29:09;26.70;99.20
1678;DHT22;6034;46.864;15.216;2022-08-01T11:31:33;27.20;99.90
1678;DHT22;6034;46.864;15.216;2022-08-01T11:34:00;26.90;99.80
1678;DHT22;6034;46.864;15.216;2022-08-01T11:36:27;27.00;99.90
1678;DHT22;6034;46.864;15.216;2022-08-01T11:39:14;27.10;97.00
1678;DHT22;6034;46.864;15.216;2022-08-01T11:41:41;27.50;94.90
1678;DHT22;6034;46.864;15.216;2022-08-01T11:44:09;28.10;93.80
1678;DHT22;6034;46.864;15.216;2022-08-01T11:46:51;28.10;93.80
1678;DHT22;6034;46.864;15.216;2022-08-01T11:49:28;28.10;94.50
1678;DHT22;6034;46.864;15.216;2022-08-01T11:51:58;28.40;95.40
1678;DHT22;6034;46.864;15.216;2022-08-01T11:54:28;28.50;96.00
1678;DHT22;6034;46.864;15.216;2022-08-01T11:56:55;28.60;95.50
1678;DHT22;6034;46.864;15.216;2022-08-01T11:59:23;28.60;96.00
1678;DHT22;6034;46.864;15.216;2022-08-01T12:01:50;28.40;93.00
1678;DHT22;6034;46.864;15.216;2022-08-01T12:04:17;28.40;95.00
1678;DHT22;6034;46.864;15.216;2022-08-01T12:06:44;28.30;93.00
1678;DHT22;6034;46.864;15.216;2022-08-01T12:09:17;28.20;93.20
1678;DHT22;6034;46.864;15.216;2022-08-01T12:11:46;27.90;93.50
1678;DHT22;6034;46.864;15.216;2022-08-01T12:14:17;27.90;94.20
1678;DHT22;6034;46.864;15.216;2022-08-01T12:16:48;27.90;93.60
1678;DHT22;6034;46.864;15.216;2022-08-01T12:19:19;28.10;94.50
1678;DHT22;6034;46.864;15.216;2022-08-01T12:24:27;28.80;95.50
1678;DHT22;6034;46.864;15.216;2022-08-01T12:26:56;28.80;94.40
1678;DHT22;6034;46.864;15.216;2022-08-01T12:29:35;29.00;93.90
1678;DHT22;6034;46.864;15.216;2022-08-01T12:32:03;29.20;94.90
1678;DHT22;6034;46.864;15.216;2022-08-01T12:34:30;29.30;94.70
1678;DHT22;6034;46.864;15.216;2022-08-01T12:37:00;29.40;94.60
1678;DHT22;6034;46.864;15.216;2022-08-01T12:39:36;29.30;94.10
1678;DHT22;6034;46.864;15.216;2022-08-01T12:42:06;29.50;93.60
1678;DHT22;6034;46.864;15.216;2022-08-01T12:44:33;29.50;93.70
1678;DHT22;6034;46.864;15.216;2022-08-01T12:47:01;29.50;92.40
1678;DHT22;6034;46.864;15.216;2022-08-01T12:49:28;29.70;92.30
1678;DHT22;6034;46.864;15.216;2022-08-01T12:51:55;29.70;91.40
1678;DHT22;6034;46.864;15.216;2022-08-01T12:54:22;29.80;91.90
1678;DHT22;6034;46.864;15.216;2022-08-01T12:56:50;29.70;90.10
1678;DHT22;6034;46.864;15.216;2022-08-01T12:59:23;29.70;90.30
1678;DHT22;6034;46.864;15.216;2022-08-01T13:01:52;29.80;90.90
1678;DHT22;6034;46.864;15.216;2022-08-01T13:04:19;29.50;88.10
1678;DHT22;6034;46.864;15.216;2022-08-01T13:06:46;29.60;89.50
1678;DHT22;6034;46.864;15.216;2022-08-01T13:09:13;29.40;91.00
1678;DHT22;6034;46.864;15.216;2022-08-01T13:11:40;29.10;90.10
1678;DHT22;6034;46.864;15.216;2022-08-01T13:14:09;29.10;89.60
1678;DHT22;6034;46.864;15.216;2022-08-01T13:16:47;29.30;90.90
1678;DHT22;6034;46.864;15.216;2022-08-01T13:19:14;29.50;91.40
1678;DHT22;6034;46.864;15.216;2022-08-01T13:21:53;29.70;90.40
1678;DHT22;6034;46.864;15.216;2022-08-01T13:24:23;29.80;90.60
1678;DHT22;6034;46.864;15.216;2022-08-01T13:26:52;29.40;89.90
1678;DHT22;6034;46.864;15.216;2022-08-01T13:29:21;29.10;88.20
1678;DHT22;6034;46.864;15.216;2022-08-01T13:31:50;29.00;87.60
1678;DHT22;6034;46.864;15.216;2022-08-01T13:34:17;28.80;88.90
1678;DHT22;6034;46.864;15.216;2022-08-01T13:36:44;28.70;89.50
1678;DHT22;6034;46.864;15.216;2022-08-01T13:39:11;28.70;90.10
1678;DHT22;6034;46.864;15.216;2022-08-01T13:41:56;28.90;88.40
1678;DHT22;6034;46.864;15.216;2022-08-01T13:44:22;29.20;90.40
1678;DHT22;6034;46.864;15.216;2022-08-01T13:46:51;29.10;90.70
1678;DHT22;6034;46.864;15.216;2022-08-01T13:49:18;29.00;90.20
1678;DHT22;6034;46.864;15.216;2022-08-01T13:51:45;28.80;91.00
1678;DHT22;6034;46.864;15.216;2022-08-01T13:54:12;28.60;88.00
1678;DHT22;6034;46.864;15.216;2022-08-01T13:56:39;28.60;90.00
1678;DHT22;6034;46.864;15.216;2022-08-01T13:59:06;28.50;90.20
1678;DHT22;6034;46.864;15.216;2022-08-01T14:01:33;28.50;90.60
1678;DHT22;6034;46.864;15.216;2022-08-01T14:04:01;28.50;91.40
1678;DHT22;6034;46.864;15.216;2022-08-01T14:06:29;28.40;91.20
1678;DHT22;6034;46.864;15.216;2022-08-01T14:08:55;28.40;91.00
1678;DHT22;6034;46.864;15.216;2022-08-01T14:11:22;28.40;91.40
1678;DHT22;6034;46.864;15.216;2022-08-01T14:13:49;28.30;91.90
1678;DHT22;6034;46.864;15.216;2022-08-01T14:16:16;28.30;91.40
1678;DHT22;6034;46.864;15.216;2022-08-01T14:18:43;28.30;91.30
1678;DHT22;6034;46.864;15.216;2022-08-01T14:21:12;28.20;91.00
1678;DHT22;6034;46.864;15.216;2022-08-01T14:23:40;28.10;91.30
1678;DHT22;6034;46.864;15.216;2022-08-01T14:26:08;28.10;91.40
1678;DHT22;6034;46.864;15.216;2022-08-01T14:28:35;28.10;92.10
1678;DHT22;6034;46.864;15.216;2022-08-01T14:31:02;28.20;92.20
1678;DHT22;6034;46.864;15.216;2022-08-01T14:33:31;28.10;92.30
1678;DHT22;6034;46.864;15.216;2022-08-01T14:35:58;28.10;92.70
1678;DHT22;6034;46.864;15.216;2022-08-01T14:38:26;27.90;93.60
1678;DHT22;6034;46.864;15.216;2022-08-01T14:40:53;27.90;91.90
1678;DHT22;6034;46.864;15.216;2022-08-01T14:43:20;27.80;92.30
1678;DHT22;6034;46.864;15.216;2022-08-01T14:45:48;27.80;92.50
1678;DHT22;6034;46.864;15.216;2022-08-01T14:48:17;27.70;92.10
1678;DHT22;6034;46.864;15.216;2022-08-01T14:50:44;27.60;92.60
1678;DHT22;6034;46.864;15.216;2022-08-01T14:53:11;27.70;92.60
1678;DHT22;6034;46.864;15.216;2022-08-01T14:55:39;27.80;92.30
1678;DHT22;6034;46.864;15.216;2022-08-01T14:58:06;27.80;92.40
1678;DHT22;6034;46.864;15.216;2022-08-01T15:00:33;27.80;92.80
1678;DHT22;6034;46.864;15.216;2022-08-01T15:03:00;27.90;92.70
1678;DHT22;6034;46.864;15.216;2022-08-01T15:05:27;27.90;92.80
1678;DHT22;6034;46.864;15.216;2022-08-01T15:07:55;27.90;91.40
1678;DHT22;6034;46.864;15.216;2022-08-01T15:10:22;27.90;91.90
1678;DHT22;6034;46.864;15.216;2022-08-01T15:12:51;27.90;92.10
1678;DHT22;6034;46.864;15.216;2022-08-01T15:15:18;28.00;92.60
1678;DHT22;6034;46.864;15.216;2022-08-01T15:17:46;27.90;92.70
1678;DHT22;6034;46.864;15.216;2022-08-01T15:20:13;27.90;93.00
1678;DHT22;6034;46.864;15.216;2022-08-01T15:22:40;27.90;93.40
1678;DHT22;6034;46.864;15.216;2022-08-01T15:25:07;27.80;92.80
1678;DHT22;6034;46.864;15.216;2022-08-01T15:27:34;27.80;93.00
1678;DHT22;6034;46.864;15.216;2022-08-01T15:30:02;27.80;91.80
1678;DHT22;6034;46.864;15.216;2022-08-01T15:32:29;27.80;92.10
1678;DHT22;6034;46.864;15.216;2022-08-01T15:34:56;27.80;92.60
1678;DHT22;6034;46.864;15.216;2022-08-01T15:37:23;27.80;91.80
1678;DHT22;6034;46.864;15.216;2022-08-01T15:39:50;27.80;91.90
1678;DHT22;6034;46.864;15.216;2022-08-01T15:42:17;27.70;91.80
1678;DHT22;6034;46.864;15.216;2022-08-01T15:44:44;27.70;91.70
1678;DHT22;6034;46.864;15.216;2022-08-01T15:47:12;27.60;92.00
1678;DHT22;6034;46.864;15.216;2022-08-01T15:49:39;27.60;92.90
1678;DHT22;6034;46.864;15.216;2022-08-01T15:52:06;27.50;92.30
1678;DHT22;6034;46.864;15.216;2022-08-01T15:54:33;27.50;92.50
1678;DHT22;6034;46.864;15.216;2022-08-01T15:57:01;27.50;93.00
1678;DHT22;6034;46.864;15.216;2022-08-01T15:59:28;27.50;93.70
1678;DHT22;6034;46.864;15.216;2022-08-01T16:01:55;27.40;93.90
1678;DHT22;6034;46.864;15.216;2022-08-01T16:04:23;27.40;93.70
1678;DHT22;6034;46.864;15.216;2022-08-01T16:06:50;27.40;93.40
1678;DHT22;6034;46.864;15.216;2022-08-01T16:09:17;27.40;93.20
1678;DHT22;6034;46.864;15.216;2022-08-01T16:11:44;27.30;93.10
1678;DHT22;6034;46.864;15.216;2022-08-01T16:14:13;27.30;92.90
1678;DHT22;6034;46.864;15.216;2022-08-01T16:16:40;27.30;93.20
1678;DHT22;6034;46.864;15.216;2022-08-01T16:19:07;27.20;93.50
1678;DHT22;6034;46.864;15.216;2022-08-01T16:21:35;27.20;93.20
1678;DHT22;6034;46.864;15.216;2022-08-01T16:24:02;27.20;93.40
1678;DHT22;6034;46.864;15.216;2022-08-01T16:26:29;27.20;92.60
1678;DHT22;6034;46.864;15.216;2022-08-01T16:28:56;27.20;92.70
1678;DHT22;6034;46.864;15.216;2022-08-01T16:31:23;27.10;92.50
1678;DHT22;6034;46.864;15.216;2022-08-01T16:33:51;27.00;91.90
1678;DHT22;6034;46.864;15.216;2022-08-01T16:36:17;27.00;91.90
1678;DHT22;6034;46.864;15.216;2022-08-01T16:38:46;26.90;91.70
1678;DHT22;6034;46.864;15.216;2022-08-01T16:41:13;26.90;91.60
1678;DHT22;6034;46.864;15.216;2022-08-01T16:43:40;26.80;93.50
1678;DHT22;6034;46.864;15.216;2022-08-01T16:46:06;26.70;95.30
1678;DHT22;6034;46.864;15.216;2022-08-01T16:48:34;26.60;94.90
1678;DHT22;6034;46.864;15.216;2022-08-01T16:51:01;26.50;94.80
1678;DHT22;6034;46.864;15.216;2022-08-01T16:53:28;26.50;95.60
1678;DHT22;6034;46.864;15.216;2022-08-01T16:55:56;26.50;96.10
1678;DHT22;6034;46.864;15.216;2022-08-01T16:58:23;26.40;96.20
1678;DHT22;6034;46.864;15.216;2022-08-01T17:00:50;26.40;95.80
1678;DHT22;6034;46.864;15.216;2022-08-01T17:03:18;26.20;96.10
1678;DHT22;6034;46.864;15.216;2022-08-01T17:05:47;26.30;95.90
1678;DHT22;6034;46.864;15.216;2022-08-01T17:08:14;26.30;96.30
1678;DHT22;6034;46.864;15.216;2022-08-01T17:10:41;26.20;94.90
1678;DHT22;6034;46.864;15.216;2022-08-01T17:13:09;26.10;94.60
1678;DHT22;6034;46.864;15.216;2022-08-01T17:15:37;26.20;94.50
1678;DHT22;6034;46.864;15.216;2022-08-01T17:18:04;26.10;95.00
1678;DHT22;6034;46.864;15.216;2022-08-01T17:20:31;26.10;95.30
1678;DHT22;6034;46.864;15.216;2022-08-01T17:22:58;26.00;95.50
1678;DHT22;6034;46.864;15.216;2022-08-01T17:25:25;26.00;95.40
1678;DHT22;6034;46.864;15.216;2022-08-01T17:27:52;26.00;96.00
1678;DHT22;6034;46.864;15.216;2022-08-01T17:30:22;25.80;96.40
1678;DHT22;6034;46.864;15.216;2022-08-01T17:32:49;25.80;96.80
1678;DHT22;6034;46.864;15.216;2022-08-01T17:35:16;25.80;96.60
1678;DHT22;6034;46.864;15.216;2022-08-01T17:37:43;25.80;96.70
1678;DHT22;6034;46.864;15.216;2022-08-01T17:40:10;25.60;96.70
1678;DHT22;6034;46.864;15.216;2022-08-01T17:42:38;25.50;97.20
1678;DHT22;6034;46.864;15.216;2022-08-01T17:45:06;25.60;97.10
1678;DHT22;6034;46.864;15.216;2022-08-01T17:47:34;25.50;97.20
1678;DHT22;6034;46.864;15.216;2022-08-01T17:50:01;25.50;97.00
1678;DHT22;6034;46.864;15.216;2022-08-01T17:52:29;25.50;97.00
1678;DHT22;6034;46.864;15.216;2022-08-01T17:54:56;25.40;97.00
1678;DHT22;6034;46.864;15.216;2022-08-01T17:57:23;25.30;97.00
1678;DHT22;6034;46.864;15.216;2022-08-01T17:59:50;25.30;97.00
1678;DHT22;6034;46.864;15.216;2022-08-01T18:02:17;25.30;97.00
1678;DHT22;6034;46.864;15.216;2022-08-01T18:04:45;25.20;97.30
1678;DHT22;6034;46.864;15.216;2022-08-01T18:07:12;25.20;97.00
1678;DHT22;6034;46.864;15.216;2022-08-01T18:09:39;25.20;97.30
1678;DHT22;6034;46.864;15.216;2022-08-01T18:12:06;25.10;97.50
1678;DHT22;6034;46.864;15.216;2022-08-01T18:14:33;25.10;97.70
1678;DHT22;6034;46.864;15.216;2022-08-01T18:17:00;25.10;97.70
1678;DHT22;6034;46.864;15.216;2022-08-01T18:19:27;25.00;97.60
1678;DHT22;6034;46.864;15.216;2022-08-01T18:21:55;25.00;98.00
1678;DHT22;6034;46.864;15.216;2022-08-01T18:24:22;25.00;98.40
1678;DHT22;6034;46.864;15.216;2022-08-01T18:26:49;24.90;98.30
1678;DHT22;6034;46.864;15.216;2022-08-01T18:29:18;24.90;98.50
1678;DHT22;6034;46.864;15.216;2022-08-01T18:31:45;24.90;98.40
1678;DHT22;6034;46.864;15.216;2022-08-01T18:34:12;24.80;98.40
1678;DHT22;6034;46.864;15.216;2022-08-01T18:36:39;24.80;98.70
1678;DHT22;6034;46.864;15.216;2022-08-01T18:39:07;24.70;99.00
1678;DHT22;6034;46.864;15.216;2022-08-01T18:41:35;24.70;99.20
1678;DHT22;6034;46.864;15.216;2022-08-01T18:44:02;24.60;99.20
1678;DHT22;6034;46.864;15.216;2022-08-01T18:46:30;24.60;98.80
1678;DHT22;6034;46.864;15.216;2022-08-01T18:48:56;24.60;99.10
1678;DHT22;6034;46.864;15.216;2022-08-01T18:51:23;24.50;99.40
1678;DHT22;6034;46.864;15.216;2022-08-01T18:53:52;24.50;99.70
1678;DHT22;6034;46.864;15.216;2022-08-01T18:56:21;24.50;99.20
1678;DHT22;6034;46.864;15.216;2022-08-01T18:58:48;24.40;99.90
1678;DHT22;6034;46.864;15.216;2022-08-01T19:01:15;24.30;99.90
1678;DHT22;6034;46.864;15.216;2022-08-01T19:03:42;24.30;99.90
1678;DHT22;6034;46.864;15.216;2022-08-01T19:06:09;24.30;99.90
1678;DHT22;6034;46.864;15.216;2022-08-01T19:08:36;24.20;99.90
1678;DHT22;6034;46.864;15.216;2022-08-01T19:11:03;24.20;99.90
1678;DHT22;6034;46.864;15.216;2022-08-01T19:13:31;24.10;99.90
1678;DHT22;6034;46.864;15.216;2022-08-01T19:15:58;24.00;99.90
1678;DHT22;6034;46.864;15.216;2022-08-01T19:18:25;24.00;99.90
1678;DHT22;6034;46.864;15.216;2022-08-01T19:20:52;23.90;99.90
1678;DHT22;6034;46.864;15.216;2022-08-01T19:23:19;23.90;99.90
1678;DHT22;6034;46.864;15.216;2022-08-01T19:26:04;23.80;99.90
1678;DHT22;6034;46.864;15.216;2022-08-01T19:28:37;23.70;99.90
1678;DHT22;6034;46.864;15.216;2022-08-01T19:31:05;23.70;99.90
1678;DHT22;6034;46.864;15.216;2022-08-01T19:33:33;23.70;99.90
1678;DHT22;6034;46.864;15.216;2022-08-01T19:36:03;23.70;99.90
1678;DHT22;6034;46.864;15.216;2022-08-01T19:38:30;23.70;99.90
1678;DHT22;6034;46.864;15.216;2022-08-01T19:40:58;23.70;99.90
1678;DHT22;6034;46.864;15.216;2022-08-01T19:43:27;23.60;99.90
1678;DHT22;6034;46.864;15.216;2022-08-01T19:45:56;23.50;99.90
1678;DHT22;6034;46.864;15.216;2022-08-01T19:48:23;23.50;99.90
1678;DHT22;6034;46.864;15.216;2022-08-01T19:50:50;23.40;99.90
1678;DHT22;6034;46.864;15.216;2022-08-01T19:53:18;23.40;99.90
1678;DHT22;6034;46.864;15.216;2022-08-01T19:55:48;23.40;99.90
1678;DHT22;6034;46.864;15.216;2022-08-01T19:58:17;23.30;99.90
1678;DHT22;6034;46.864;15.216;2022-08-01T20:00:44;23.30;99.90
1678;DHT22;6034;46.864;15.216;2022-08-01T20:03:13;23.40;99.90
1678;DHT22;6034;46.864;15.216;2022-08-01T20:05:40;23.30;99.90
1678;DHT22;6034;46.864;15.216;2022-08-01T20:08:08;23.30;99.90
1678;DHT22;6034;46.864;15.216;2022-08-01T20:10:35;23.30;99.90
1678;DHT22;6034;46.864;15.216;2022-08-01T20:13:03;23.20;99.90
1678;DHT22;6034;46.864;15.216;2022-08-01T20:15:30;23.20;99.90
1678;DHT22;6034;46.864;15.216;2022-08-01T20:17:57;23.30;99.90
1678;DHT22;6034;46.864;15.216;2022-08-01T20:20:25;23.30;99.90
1678;DHT22;6034;46.864;15.216;2022-08-01T20:22:53;23.20;99.90
1678;DHT22;6034;46.864;15.216;2022-08-01T20:25:21;23.20;99.90
1678;DHT22;6034;46.864;15.216;2022-08-01T20:27:50;23.20;99.90
1678;DHT22;6034;46.864;15.216;2022-08-01T20:30:17;23.20;99.90
1678;DHT22;6034;46.864;15.216;2022-08-01T20:32:44;23.20;99.90
1678;DHT22;6034;46.864;15.216;2022-08-01T20:35:11;23.20;99.90
1678;DHT22;6034;46.864;15.216;2022-08-01T20:37:39;23.20;99.90
1678;DHT22;6034;46.864;15.216;2022-08-01T20:40:08;23.10;99.90
1678;DHT22;6034;46.864;15.216;2022-08-01T20:42:36;23.00;99.90
1678;DHT22;6034;46.864;15.216;2022-08-01T20:45:03;23.00;99.90
1678;DHT22;6034;46.864;15.216;2022-08-01T20:47:30;23.00;99.90
1678;DHT22;6034;46.864;15.216;2022-08-01T20:50:03;23.10;99.90
1678;DHT22;6034;46.864;15.216;2022-08-01T20:52:49;23.10;99.90
1678;DHT22;6034;46.864;15.216;2022-08-01T20:55:16;23.20;99.90
1678;DHT22;6034;46.864;15.216;2022-08-01T20:57:43;23.30;99.90
